createdAt,value
2024-03-02T00:00:26.492Z,99210.00
2024-03-02T00:02:53.721Z,99215.00
2024-03-02T00:05:21.740Z,99214.00
2024-03-02T00:08:01.067Z,99211.00
2024-03-02T00:10:38.144Z,99210.00
2024-03-02T00:13:04.947Z,99223.00
2024-03-02T00:15:44.615Z,99222.00
2024-03-02T00:18:19.568Z,99213.00
2024-03-02T00:20:46.783Z,99219.00
2024-03-02T00:23:16.643Z,99225.00
2024-03-02T00:25:53.245Z,99227.00
2024-03-02T00:28:36.493Z,99222.00
2024-03-02T00:31:13.141Z,99230.00
2024-03-02T00:33:44.976Z,99230.00
2024-03-02T00:36:17.049Z,99227.00
2024-03-02T00:38:48.668Z,99238.00
2024-03-02T00:41:24.097Z,99234.00
2024-03-02T00:44:04.866Z,99228.00
2024-03-02T00:46:38.237Z,99234.00
2024-03-02T00:49:07.097Z,99225.00
2024-03-02T00:51:35.849Z,99227.00
2024-03-02T00:54:05.191Z,99224.00
2024-03-02T00:56:33.753Z,99220.00
2024-03-02T00:59:00.339Z,99213.00
2024-03-02T01:01:26.974Z,99221.00
2024-03-02T01:03:54.596Z,99231.00
2024-03-02T01:06:21.503Z,99230.00
2024-03-02T01:08:53.641Z,99232.00
2024-03-02T01:11:23.801Z,99229.00
2024-03-02T01:13:51.390Z,99228.00
2024-03-02T01:16:18.090Z,99212.00
2024-03-02T01:18:45.732Z,99222.00
2024-03-02T01:21:13.152Z,99218.00
2024-03-02T01:23:39.906Z,99202.00
2024-03-02T01:26:06.858Z,99208.00
2024-03-02T01:28:33.974Z,99210.00
2024-03-02T01:31:00.651Z,99214.00
2024-03-02T01:33:27.675Z,99212.00
2024-03-02T01:35:54.290Z,99207.00
2024-03-02T01:38:21.386Z,99203.00
2024-03-02T01:40:48.230Z,99196.00
2024-03-02T01:43:14.996Z,99195.00
2024-03-02T01:45:41.767Z,99194.00
2024-03-02T01:48:09.970Z,99189.00
2024-03-02T01:50:37.224Z,99197.00
2024-03-02T01:53:04.331Z,99203.00
2024-03-02T01:55:31.980Z,99208.00
2024-03-02T01:57:59.124Z,99197.00
2024-03-02T02:00:27.601Z,99193.00
2024-03-02T02:02:55.131Z,99204.00
2024-03-02T02:05:21.760Z,99198.00
2024-03-02T02:07:48.472Z,99192.00
2024-03-02T02:10:15.351Z,99193.00
2024-03-02T02:12:41.984Z,99196.00
2024-03-02T02:15:32.185Z,99194.00
2024-03-02T02:18:00.303Z,99186.00
2024-03-02T02:20:27.250Z,99188.00
2024-03-02T02:22:57.693Z,99192.00
2024-03-02T02:25:24.459Z,99195.00
2024-03-02T02:27:51.249Z,99187.00
2024-03-02T02:30:26.407Z,99180.00
2024-03-02T02:32:53.395Z,99175.00
2024-03-02T02:35:21.304Z,99189.00
2024-03-02T02:37:48.902Z,99190.00
2024-03-02T02:40:15.721Z,99180.00
2024-03-02T02:42:43.036Z,99178.00
2024-03-02T02:45:10.915Z,99171.00
2024-03-02T02:47:37.667Z,99166.00
2024-03-02T02:50:05.282Z,99161.00
2024-03-02T02:52:37.631Z,99156.00
2024-03-02T02:55:05.269Z,99159.00
2024-03-02T02:57:36.229Z,99157.00
2024-03-02T03:00:11.098Z,99158.00
2024-03-02T03:02:39.560Z,99154.00
2024-03-02T03:05:07.635Z,99153.00
2024-03-02T03:07:37.485Z,99151.00
2024-03-02T03:10:05.570Z,99147.00
2024-03-02T03:12:35.088Z,99162.00
2024-03-02T03:15:02.230Z,99147.00
2024-03-02T03:17:29.801Z,99151.00
2024-03-02T03:19:56.373Z,99149.00
2024-03-02T03:22:23.175Z,99158.00
2024-03-02T03:24:50.157Z,99151.00
2024-03-02T03:27:17.022Z,99149.00
2024-03-02T03:29:43.959Z,99147.00
2024-03-02T03:32:10.897Z,99150.00
2024-03-02T03:34:37.507Z,99147.00
2024-03-02T03:37:04.183Z,99145.00
2024-03-02T03:39:30.979Z,99147.00
2024-03-02T03:41:57.594Z,99148.00
2024-03-02T03:44:24.126Z,99149.00
2024-03-02T03:46:50.900Z,99153.00
2024-03-02T03:49:18.674Z,99145.00
2024-03-02T03:51:45.381Z,99148.00
2024-03-02T03:54:12.578Z,99146.00
2024-03-02T03:56:40.078Z,99156.00
2024-03-02T03:59:07.291Z,99153.00
2024-03-02T04:01:34.923Z,99151.00
2024-03-02T04:04:03.100Z,99150.00
2024-03-02T04:06:30.273Z,99153.00
2024-03-02T04:08:57.116Z,99167.00
2024-03-02T04:11:23.673Z,99165.00
2024-03-02T04:13:50.571Z,99164.00
2024-03-02T04:16:17.660Z,99155.00
2024-03-02T04:18:44.284Z,99152.00
2024-03-02T04:21:11.102Z,99155.00
2024-03-02T04:23:37.909Z,99159.00
2024-03-02T04:26:05.387Z,99166.00
2024-03-02T04:28:31.976Z,99159.00
2024-03-02T04:30:58.908Z,99154.00
2024-03-02T04:33:26.523Z,99158.00
2024-03-02T04:35:56.728Z,99156.00
2024-03-02T04:38:23.876Z,99151.00
2024-03-02T04:40:50.508Z,99160.00
2024-03-02T04:43:17.881Z,99172.00
2024-03-02T04:45:45.183Z,99167.00
2024-03-02T04:48:11.749Z,99175.00
2024-03-02T04:50:40.847Z,99174.00
2024-03-02T04:53:08.089Z,99168.00
2024-03-02T04:55:40.520Z,99163.00
2024-03-02T04:58:10.047Z,99171.00
2024-03-02T05:00:36.886Z,99174.00
2024-03-02T05:03:04.044Z,99172.00
2024-03-02T05:05:31.837Z,99178.00
2024-03-02T05:07:58.705Z,99187.00
2024-03-02T05:10:25.434Z,99188.00
2024-03-02T05:13:00.276Z,99186.00
2024-03-02T05:15:27.203Z,99192.00
2024-03-02T05:17:54.843Z,99186.00
2024-03-02T05:20:22.268Z,99180.00
2024-03-02T05:22:49.872Z,99200.00
2024-03-02T05:25:16.744Z,99194.00
2024-03-02T05:27:43.466Z,99188.00
2024-03-02T05:30:10.700Z,99185.00
2024-03-02T05:32:39.290Z,99189.00
2024-03-02T05:35:06.614Z,99202.00
2024-03-02T05:37:33.197Z,99196.00
2024-03-02T05:40:00.671Z,99197.00
2024-03-02T05:42:28.103Z,99194.00
2024-03-02T05:44:55.291Z,99196.00
2024-03-02T05:47:22.111Z,99191.00
2024-03-02T05:49:49.040Z,99189.00
2024-03-02T05:52:16.029Z,99199.00
2024-03-02T05:54:46.538Z,99181.00
2024-03-02T05:57:32.961Z,99207.00
2024-03-02T06:00:00.298Z,99209.00
2024-03-02T06:02:27.153Z,99206.00
2024-03-02T06:04:55.964Z,99199.00
2024-03-02T06:07:22.915Z,99191.00
2024-03-02T06:09:51.982Z,99205.00
2024-03-02T06:12:19.993Z,99203.00
2024-03-02T06:14:46.926Z,99204.00
2024-03-02T06:17:13.488Z,99210.00
2024-03-02T06:19:41.762Z,99202.00
2024-03-02T06:22:11.274Z,99195.00
2024-03-02T06:24:40.853Z,99207.00
2024-03-02T06:27:07.445Z,99198.00
2024-03-02T06:29:35.151Z,99208.00
2024-03-02T06:32:01.742Z,99206.00
2024-03-02T06:34:28.293Z,99196.00
2024-03-02T06:36:55.313Z,99206.00
2024-03-02T06:39:23.383Z,99213.00
2024-03-02T06:41:50.082Z,99212.00
2024-03-02T06:44:18.577Z,99197.00
2024-03-02T06:46:45.230Z,99214.00
2024-03-02T06:49:12.136Z,99208.00
2024-03-02T06:51:39.538Z,99221.00
2024-03-02T06:54:08.525Z,99219.00
2024-03-02T06:56:35.661Z,99211.00
2024-03-02T06:59:02.453Z,99215.00
2024-03-02T07:01:29.479Z,99214.00
2024-03-02T07:03:56.511Z,99224.00
2024-03-02T07:06:23.719Z,99226.00
2024-03-02T07:08:50.471Z,99229.00
2024-03-02T07:11:21.009Z,99215.00
2024-03-02T07:13:54.152Z,99215.00
2024-03-02T07:16:31.154Z,99224.00
2024-03-02T07:19:00.046Z,99223.00
2024-03-02T07:21:26.742Z,99240.00
2024-03-02T07:23:53.426Z,99232.00
2024-03-02T07:28:50.435Z,99233.00
2024-03-02T07:31:17.233Z,99234.00
2024-03-02T07:33:50.272Z,99232.00
2024-03-02T07:36:17.136Z,99239.00
2024-03-02T07:38:45.769Z,99236.00
2024-03-02T07:41:12.771Z,99246.00
2024-03-02T07:43:39.482Z,99228.00
2024-03-02T07:46:07.018Z,99239.00
2024-03-02T07:48:33.766Z,99253.00
2024-03-02T07:51:00.458Z,99242.00
2024-03-02T07:53:27.364Z,99245.00
2024-03-02T07:55:54.068Z,99242.00
2024-03-02T07:58:20.835Z,99252.00
2024-03-02T08:00:48.353Z,99258.00
2024-03-02T08:03:16.054Z,99258.00
2024-03-02T08:05:42.701Z,99257.00
2024-03-02T08:08:09.591Z,99261.00
2024-03-02T08:10:36.774Z,99260.00
2024-03-02T08:13:03.345Z,99267.00
2024-03-02T08:15:30.173Z,99272.00
2024-03-02T08:17:57.397Z,99259.00
2024-03-02T08:20:24.041Z,99262.00
2024-03-02T08:22:50.987Z,99265.00
2024-03-02T08:25:17.873Z,99267.00
2024-03-02T08:27:44.595Z,99262.00
2024-03-02T08:30:12.159Z,99265.00
2024-03-02T08:32:38.908Z,99261.00
2024-03-02T08:35:06.177Z,99260.00
2024-03-02T08:37:33.116Z,99263.00
2024-03-02T08:39:59.970Z,99251.00
2024-03-02T08:42:26.798Z,99256.00
2024-03-02T08:44:53.675Z,99251.00
2024-03-02T08:47:20.266Z,99248.00
2024-03-02T08:49:46.902Z,99247.00
2024-03-02T08:52:13.974Z,99243.00
2024-03-02T08:54:40.653Z,99243.00
2024-03-02T08:57:08.259Z,99247.00
2024-03-02T08:59:35.173Z,99252.00
2024-03-02T09:02:01.784Z,99259.00
2024-03-02T09:04:32.546Z,99262.00
2024-03-02T09:07:01.733Z,99260.00
2024-03-02T09:09:28.478Z,99251.00
2024-03-02T09:11:58.988Z,99249.00
2024-03-02T09:14:26.226Z,99252.00
2024-03-02T09:16:53.043Z,99244.00
2024-03-02T09:19:20.206Z,99247.00
2024-03-02T09:21:47.306Z,99235.00
2024-03-02T09:24:16.789Z,99241.00
2024-03-02T09:26:45.388Z,99241.00
2024-03-02T09:29:12.416Z,99228.00
2024-03-02T09:31:41.796Z,99236.00
2024-03-02T09:34:08.730Z,99225.00
2024-03-02T09:36:36.192Z,99228.00
2024-03-02T09:39:04.886Z,99232.00
2024-03-02T09:41:31.575Z,99229.00
2024-03-02T09:43:59.305Z,99223.00
2024-03-02T09:46:31.646Z,99226.00
2024-03-02T09:48:58.902Z,99224.00
2024-03-02T09:51:27.187Z,99225.00
2024-03-02T09:53:58.239Z,99229.00
2024-03-02T09:56:30.167Z,99225.00
2024-03-02T09:58:56.718Z,99224.00
2024-03-02T10:01:23.416Z,99224.00
2024-03-02T10:03:51.322Z,99224.00
2024-03-02T10:06:25.335Z,99220.00
2024-03-02T10:08:52.872Z,99223.00
2024-03-02T10:11:29.716Z,99218.00
2024-03-02T10:14:09.104Z,99214.00
2024-03-02T10:16:37.568Z,99213.00
2024-03-02T10:19:24.356Z,99201.00
2024-03-02T10:21:52.678Z,99207.00
2024-03-02T10:24:20.693Z,99208.00
2024-03-02T10:26:47.321Z,99204.00
2024-03-02T10:29:14.162Z,99205.00
2024-03-02T10:31:45.274Z,99204.00
2024-03-02T10:34:12.620Z,99206.00
2024-03-02T10:36:43.508Z,99212.00
2024-03-02T10:39:10.716Z,99195.00
2024-03-02T10:41:39.864Z,99201.00
2024-03-02T10:44:10.833Z,99194.00
2024-03-02T10:46:38.794Z,99193.00
2024-03-02T10:49:08.436Z,99198.00
2024-03-02T10:51:38.227Z,99199.00
2024-03-02T10:54:06.409Z,99201.00
2024-03-02T10:56:38.324Z,99192.00
2024-03-02T10:59:30.506Z,99180.00
2024-03-02T11:02:05.260Z,99181.00
2024-03-02T11:04:35.780Z,99175.00
2024-03-02T11:07:07.904Z,99164.00
2024-03-02T11:09:36.716Z,99176.00
2024-03-02T11:12:29.832Z,99171.00
2024-03-02T11:14:57.260Z,99174.00
2024-03-02T11:17:24.373Z,99163.00
2024-03-02T11:19:51.408Z,99158.00
2024-03-02T11:22:18.436Z,99166.00
2024-03-02T11:24:52.831Z,99163.00
2024-03-02T11:27:38.673Z,99158.00
2024-03-02T11:30:07.073Z,99155.00
2024-03-02T11:32:35.428Z,99150.00
2024-03-02T11:35:03.247Z,99143.00
2024-03-02T11:37:30.564Z,99142.00
2024-03-02T11:39:57.864Z,99141.00
2024-03-02T11:42:24.529Z,99147.00
2024-03-02T11:44:51.588Z,99141.00
2024-03-02T11:47:21.561Z,99140.00
2024-03-02T11:49:52.531Z,99135.00
2024-03-02T11:52:20.694Z,99117.00
2024-03-02T11:54:48.600Z,99118.00
2024-03-02T11:57:24.727Z,99114.00
2024-03-02T11:59:53.200Z,99115.00
2024-03-02T12:02:21.537Z,99102.00
2024-03-02T12:04:49.962Z,99094.00
2024-03-02T12:07:24.797Z,99091.00
2024-03-02T12:10:01.790Z,99085.00
2024-03-02T12:12:29.169Z,99088.00
2024-03-02T12:15:00.264Z,99096.00
2024-03-02T12:17:26.960Z,99085.00
2024-03-02T12:19:54.129Z,99081.00
2024-03-02T12:22:22.327Z,99070.00
2024-03-02T12:24:49.117Z,99077.00
2024-03-02T12:27:16.465Z,99069.00
2024-03-02T12:29:43.052Z,99071.00
2024-03-02T12:32:09.671Z,99068.00
2024-03-02T12:34:36.583Z,99055.00
2024-03-02T12:37:03.263Z,99058.00
2024-03-02T12:39:31.699Z,99061.00
2024-03-02T12:41:58.974Z,99055.00
2024-03-02T12:44:25.633Z,99050.00
2024-03-02T12:46:55.757Z,99054.00
2024-03-02T12:49:24.725Z,99038.00
2024-03-02T12:51:54.792Z,99035.00
2024-03-02T12:54:23.604Z,99032.00
2024-03-02T12:56:50.883Z,99041.00
2024-03-02T12:59:27.743Z,99034.00
2024-03-02T13:01:55.779Z,99036.00
2024-03-02T13:04:29.688Z,99030.00
2024-03-02T13:07:00.217Z,99028.00
2024-03-02T13:09:27.863Z,99028.00
2024-03-02T13:11:55.463Z,99020.00
2024-03-02T13:14:23.774Z,99016.00
2024-03-02T13:16:53.740Z,99025.00
2024-03-02T13:19:20.687Z,99021.00
2024-03-02T13:21:48.065Z,99021.00
2024-03-02T13:24:14.686Z,99010.00
2024-03-02T13:26:41.711Z,99010.00
2024-03-02T13:29:09.092Z,99006.00
2024-03-02T13:31:36.090Z,98999.00
2024-03-02T13:34:02.734Z,98995.00
2024-03-02T13:36:30.189Z,98990.00
2024-03-02T13:38:56.725Z,98989.00
2024-03-02T13:41:23.343Z,98993.00
2024-03-02T13:43:52.799Z,98989.00
2024-03-02T13:46:23.167Z,98989.00
2024-03-02T13:48:50.003Z,98985.00
2024-03-02T13:51:16.611Z,98981.00
2024-03-02T13:53:44.615Z,98984.00
2024-03-02T13:56:13.782Z,98974.00
2024-03-02T13:58:40.531Z,98973.00
2024-03-02T14:01:07.301Z,98971.00
2024-03-02T14:03:34.171Z,98977.00
2024-03-02T14:06:00.755Z,98982.00
2024-03-02T14:08:27.891Z,98979.00
2024-03-02T14:10:56.447Z,98976.00
2024-03-02T14:13:23.946Z,98967.00
2024-03-02T14:15:50.504Z,98970.00
2024-03-02T14:18:17.293Z,98973.00
2024-03-02T14:20:44.898Z,98968.00
2024-03-02T14:23:12.901Z,98957.00
2024-03-02T14:25:39.743Z,98958.00
2024-03-02T14:28:26.576Z,98950.00
2024-03-02T14:30:54.719Z,98949.00
2024-03-02T14:33:21.242Z,98945.00
2024-03-02T14:35:48.059Z,98946.00
2024-03-02T14:38:14.996Z,98948.00
2024-03-02T14:40:41.595Z,98944.00
2024-03-02T14:43:08.129Z,98946.00
2024-03-02T14:45:35.216Z,98949.00
2024-03-02T14:48:02.187Z,98941.00
2024-03-02T14:50:29.171Z,98942.00
2024-03-02T14:52:58.830Z,98940.00
2024-03-02T14:55:25.430Z,98934.00
2024-03-02T14:57:52.055Z,98932.00
2024-03-02T15:00:19.239Z,98933.00
2024-03-02T15:02:45.923Z,98928.00
2024-03-02T15:05:12.559Z,98917.00
2024-03-02T15:07:39.802Z,98918.00
2024-03-02T15:10:09.569Z,98911.00
2024-03-02T15:12:36.630Z,98916.00
2024-03-02T15:15:05.326Z,98911.00
2024-03-02T15:17:31.912Z,98916.00
2024-03-02T15:19:58.498Z,98912.00
2024-03-02T15:22:26.172Z,98899.00
2024-03-02T15:24:52.815Z,98904.00
2024-03-02T15:27:19.347Z,98899.00
2024-03-02T15:29:46.382Z,98900.00
2024-03-02T15:32:12.932Z,98891.00
2024-03-02T15:34:39.653Z,98889.00
2024-03-02T15:37:06.624Z,98896.00
2024-03-02T15:39:34.847Z,98885.00
2024-03-02T15:42:01.533Z,98890.00
2024-03-02T15:44:28.977Z,98885.00
2024-03-02T15:46:55.481Z,98888.00
2024-03-02T15:49:22.109Z,98879.00
2024-03-02T15:51:49.199Z,98870.00
2024-03-02T15:54:17.047Z,98865.00
2024-03-02T15:56:43.664Z,98865.00
2024-03-02T15:59:10.489Z,98857.00
2024-03-02T16:01:37.573Z,98867.00
2024-03-02T16:04:04.991Z,98863.00
2024-03-02T16:06:32.344Z,98868.00
2024-03-02T16:09:00.875Z,98869.00
2024-03-02T16:11:27.823Z,98874.00
2024-03-02T16:13:54.969Z,98875.00
2024-03-02T16:16:22.087Z,98875.00
2024-03-02T16:18:49.074Z,98883.00
2024-03-02T16:21:15.993Z,98875.00
2024-03-02T16:23:42.762Z,98867.00
2024-03-02T16:26:10.222Z,98873.00
2024-03-02T16:28:37.480Z,98870.00
2024-03-02T16:31:05.241Z,98874.00
2024-03-02T16:33:32.008Z,98876.00
2024-03-02T16:36:01.075Z,98874.00
2024-03-02T16:38:27.611Z,98884.00
2024-03-02T16:40:55.853Z,98873.00
2024-03-02T16:43:24.211Z,98869.00
2024-03-02T16:45:51.063Z,98884.00
2024-03-02T16:48:18.638Z,98880.00
2024-03-02T16:50:45.661Z,98878.00
2024-03-02T16:53:12.205Z,98878.00
2024-03-02T16:55:38.914Z,98869.00
2024-03-02T16:58:07.451Z,98878.00
2024-03-02T17:00:34.174Z,98884.00
2024-03-02T17:03:01.054Z,98879.00
2024-03-02T17:05:28.053Z,98878.00
2024-03-02T17:07:54.633Z,98881.00
2024-03-02T17:10:21.514Z,98873.00
2024-03-02T17:12:48.842Z,98871.00
2024-03-02T17:15:15.450Z,98871.00
2024-03-02T17:17:42.342Z,98881.00
2024-03-02T17:20:10.630Z,98871.00
2024-03-02T17:22:37.204Z,98880.00
2024-03-02T17:25:04.030Z,98880.00
2024-03-02T17:27:32.034Z,98884.00
2024-03-02T17:29:59.540Z,98887.00
2024-03-02T17:32:26.163Z,98880.00
2024-03-02T17:34:53.439Z,98877.00
2024-03-02T17:37:20.150Z,98880.00
2024-03-02T17:39:48.686Z,98877.00
2024-03-02T17:42:15.504Z,98882.00
2024-03-02T17:44:42.137Z,98879.00
2024-03-02T17:47:09.015Z,98880.00
2024-03-02T17:49:36.648Z,98874.00
2024-03-02T17:52:03.493Z,98885.00
2024-03-02T17:54:30.059Z,98877.00
2024-03-02T17:56:57.898Z,98884.00
2024-03-02T17:59:25.364Z,98889.00
2024-03-02T18:01:52.081Z,98878.00
2024-03-02T18:04:19.300Z,98884.00
2024-03-02T18:06:46.907Z,98877.00
2024-03-02T18:09:13.473Z,98881.00
2024-03-02T18:11:40.676Z,98880.00
2024-03-02T18:14:07.433Z,98877.00
2024-03-02T18:16:34.301Z,98885.00
2024-03-02T18:19:01.433Z,98877.00
2024-03-02T18:21:28.964Z,98883.00
2024-03-02T18:23:55.520Z,98875.00
2024-03-02T18:26:24.277Z,98875.00
2024-03-02T18:28:51.862Z,98872.00
2024-03-02T18:31:22.902Z,98876.00
2024-03-02T18:33:51.216Z,98874.00
2024-03-02T18:36:17.867Z,98871.00
2024-03-02T18:38:44.431Z,98867.00
2024-03-02T18:41:11.278Z,98869.00
2024-03-02T18:43:37.889Z,98874.00
2024-03-02T18:46:07.900Z,98881.00
2024-03-02T18:48:34.939Z,98872.00
2024-03-02T18:51:07.911Z,98880.00
2024-03-02T18:53:34.800Z,98872.00
2024-03-02T18:56:01.561Z,98879.00
2024-03-02T18:58:28.078Z,98873.00
2024-03-02T19:00:54.946Z,98880.00
2024-03-02T19:03:21.540Z,98874.00
2024-03-02T19:05:48.043Z,98869.00
2024-03-02T19:08:19.355Z,98871.00
2024-03-02T19:10:46.541Z,98857.00
2024-03-02T19:13:13.211Z,98855.00
2024-03-02T19:15:40.272Z,98853.00
2024-03-02T19:18:07.011Z,98863.00
2024-03-02T19:20:33.885Z,98860.00
2024-03-02T19:23:01.362Z,98858.00
2024-03-02T19:25:28.087Z,98860.00
2024-03-02T19:27:54.897Z,98860.00
2024-03-02T19:30:22.010Z,98868.00
2024-03-02T19:32:48.685Z,98870.00
2024-03-02T19:35:15.629Z,98871.00
2024-03-02T19:37:42.936Z,98871.00
2024-03-02T19:40:11.141Z,98871.00
2024-03-02T19:42:38.011Z,98877.00
2024-03-02T19:45:08.441Z,98874.00
2024-03-02T19:47:36.076Z,98868.00
2024-03-02T19:50:04.404Z,98863.00
2024-03-02T19:52:31.659Z,98877.00
2024-03-02T19:55:00.412Z,98877.00
2024-03-02T19:57:28.245Z,98878.00
2024-03-02T19:59:55.017Z,98884.00
2024-03-02T20:02:23.152Z,98878.00
2024-03-02T20:04:49.804Z,98870.00
2024-03-02T20:07:16.657Z,98874.00
2024-03-02T20:09:43.674Z,98880.00
2024-03-02T20:12:10.485Z,98879.00
2024-03-02T20:14:39.570Z,98880.00
2024-03-02T20:17:07.738Z,98892.00
2024-03-02T20:19:34.495Z,98886.00
2024-03-02T20:22:01.290Z,98896.00
2024-03-02T20:24:28.134Z,98891.00
2024-03-02T20:26:54.693Z,98892.00
2024-03-02T20:29:21.724Z,98893.00
2024-03-02T20:31:49.124Z,98896.00
2024-03-02T20:34:17.915Z,98892.00
2024-03-02T20:36:45.550Z,98890.00
2024-03-02T20:39:12.165Z,98888.00
2024-03-02T20:41:38.910Z,98887.00
2024-03-02T20:44:05.811Z,98883.00
2024-03-02T20:46:32.695Z,98874.00
2024-03-02T20:48:59.737Z,98881.00
2024-03-02T20:51:32.970Z,98873.00
2024-03-02T20:54:00.745Z,98865.00
2024-03-02T20:56:27.839Z,98863.00
2024-03-02T20:58:54.388Z,98856.00
2024-03-02T21:01:21.069Z,98858.00
2024-03-02T21:03:48.227Z,98872.00
2024-03-02T21:06:15.903Z,98866.00
2024-03-02T21:08:42.482Z,98859.00
2024-03-02T21:11:10.613Z,98863.00
2024-03-02T21:13:37.799Z,98857.00
2024-03-02T21:16:04.686Z,98862.00
2024-03-02T21:18:32.204Z,98853.00
2024-03-02T21:20:59.220Z,98853.00
2024-03-02T21:23:25.790Z,98858.00
2024-03-02T21:25:52.797Z,98863.00
2024-03-02T21:28:20.571Z,98864.00
2024-03-02T21:30:47.658Z,98856.00
2024-03-02T21:33:14.711Z,98853.00
2024-03-02T21:35:41.246Z,98855.00
2024-03-02T21:38:08.648Z,98861.00
2024-03-02T21:40:35.804Z,98856.00
2024-03-02T21:43:02.509Z,98859.00
2024-03-02T21:45:29.192Z,98856.00
2024-03-02T21:47:56.277Z,98862.00
2024-03-02T21:50:23.459Z,98850.00
2024-03-02T21:52:54.467Z,98855.00
2024-03-02T21:55:22.101Z,98852.00
2024-03-02T21:57:53.014Z,98853.00
2024-03-02T22:00:19.759Z,98857.00
2024-03-02T22:02:46.827Z,98852.00
2024-03-02T22:05:19.582Z,98844.00
2024-03-02T22:07:46.918Z,98844.00
2024-03-02T22:10:13.568Z,98836.00
2024-03-02T22:12:40.141Z,98849.00
2024-03-02T22:15:07.687Z,98862.00
2024-03-02T22:17:34.375Z,98858.00
2024-03-02T22:20:01.285Z,98860.00
2024-03-02T22:22:28.350Z,98862.00
2024-03-02T22:24:58.316Z,98865.00
2024-03-02T22:27:25.015Z,98852.00
2024-03-02T22:29:51.858Z,98849.00
2024-03-02T22:32:18.601Z,98856.00
2024-03-02T22:34:45.169Z,98854.00
2024-03-02T22:37:12.540Z,98845.00
2024-03-02T22:39:39.247Z,98846.00
2024-03-02T22:42:05.828Z,98839.00
2024-03-02T22:44:35.350Z,98835.00
2024-03-02T22:47:02.184Z,98842.00
2024-03-02T22:49:28.740Z,98844.00
2024-03-02T22:51:55.584Z,98858.00
2024-03-02T22:54:22.723Z,98850.00
2024-03-02T22:56:49.546Z,98850.00
2024-03-02T22:59:16.820Z,98847.00
2024-03-02T23:01:45.000Z,98850.00
2024-03-02T23:04:11.806Z,98841.00
2024-03-02T23:06:39.049Z,98840.00
2024-03-02T23:09:06.206Z,98835.00
2024-03-02T23:11:33.025Z,98835.00
2024-03-02T23:14:01.159Z,98823.00
2024-03-02T23:16:29.950Z,98827.00
2024-03-02T23:18:56.883Z,98836.00
2024-03-02T23:21:23.720Z,98838.00
2024-03-02T23:23:53.654Z,98848.00
2024-03-02T23:26:23.465Z,98860.00
2024-03-02T23:28:53.385Z,98862.00
2024-03-02T23:31:20.137Z,98858.00
2024-03-02T23:33:49.188Z,98859.00
2024-03-02T23:36:16.049Z,98856.00
2024-03-02T23:38:42.557Z,98851.00
2024-03-02T23:41:10.778Z,98851.00
2024-03-02T23:43:39.656Z,98856.00
2024-03-02T23:46:07.876Z,98856.00
2024-03-02T23:48:37.975Z,98852.00
2024-03-02T23:51:05.228Z,98853.00
2024-03-02T23:53:32.177Z,98846.00
2024-03-02T23:56:09.223Z,98839.00
2024-03-02T23:58:36.024Z,98834.00
